sensor_id;sensor_type;location;lat;lon;timestamp;P1;durP1;ratioP1;P2;durP2;ratioP2
1831;SDS011;1680;48.106;11.708;2022-11-15T00:00:25;4.47;;;4.10;;
1831;SDS011;1680;48.106;11.708;2022-11-15T00:02:52;4.23;;;3.83;;
1831;SDS011;1680;48.106;11.708;2022-11-15T00:05:19;4.60;;;3.90;;
1831;SDS011;1680;48.106;11.708;2022-11-15T00:07:46;4.87;;;4.37;;
1831;SDS011;1680;48.106;11.708;2022-11-15T00:10:13;4.13;;;3.72;;
1831;SDS011;1680;48.106;11.708;2022-11-15T00:12:41;4.40;;;4.00;;
1831;SDS011;1680;48.106;11.708;2022-11-15T00:15:08;4.25;;;3.85;;
1831;SDS011;1680;48.106;11.708;2022-11-15T00:17:34;5.13;;;4.68;;
1831;SDS011;1680;48.106;11.708;2022-11-15T00:20:02;5.30;;;3.88;;
1831;SDS011;1680;48.106;11.708;2022-11-15T00:22:31;4.00;;;3.70;;
1831;SDS011;1680;48.106;11.708;2022-11-15T00:24:57;4.40;;;4.10;;
1831;SDS011;1680;48.106;11.708;2022-11-15T00:27:24;4.07;;;3.67;;
1831;SDS011;1680;48.106;11.708;2022-11-15T00:29:52;3.90;;;3.60;;
1831;SDS011;1680;48.106;11.708;2022-11-15T00:32:19;4.30;;;3.90;;
1831;SDS011;1680;48.106;11.708;2022-11-15T00:34:45;3.83;;;3.53;;
1831;SDS011;1680;48.106;11.708;2022-11-15T00:37:12;3.80;;;3.50;;
1831;SDS011;1680;48.106;11.708;2022-11-15T00:39:39;3.95;;;3.65;;
1831;SDS011;1680;48.106;11.708;2022-11-15T00:42:05;4.37;;;3.97;;
1831;SDS011;1680;48.106;11.708;2022-11-15T00:44:32;5.40;;;4.90;;
1831;SDS011;1680;48.106;11.708;2022-11-15T00:47:00;6.90;;;6.20;;
1831;SDS011;1680;48.106;11.708;2022-11-15T00:49:27;8.45;;;7.60;;
1831;SDS011;1680;48.106;11.708;2022-11-15T00:51:54;8.77;;;7.88;;
1831;SDS011;1680;48.106;11.708;2022-11-15T00:54:20;8.02;;;7.22;;
1831;SDS011;1680;48.106;11.708;2022-11-15T00:56:47;8.40;;;7.50;;
1831;SDS011;1680;48.106;11.708;2022-11-15T00:59:14;8.73;;;7.60;;
1831;SDS011;1680;48.106;11.708;2022-11-15T01:01:40;11.68;;;9.30;;
1831;SDS011;1680;48.106;11.708;2022-11-15T01:04:08;8.85;;;7.95;;
1831;SDS011;1680;48.106;11.708;2022-11-15T01:06:34;9.38;;;7.68;;
1831;SDS011;1680;48.106;11.708;2022-11-15T01:09:01;8.07;;;7.25;;
1831;SDS011;1680;48.106;11.708;2022-11-15T01:11:28;5.75;;;5.10;;
1831;SDS011;1680;48.106;11.708;2022-11-15T01:13:54;6.60;;;5.15;;
1831;SDS011;1680;48.106;11.708;2022-11-15T01:16:21;5.07;;;4.57;;
1831;SDS011;1680;48.106;11.708;2022-11-15T01:18:48;5.05;;;4.57;;
1831;SDS011;1680;48.106;11.708;2022-11-15T01:21:16;3.95;;;3.65;;
1831;SDS011;1680;48.106;11.708;2022-11-15T01:23:43;4.32;;;3.92;;
1831;SDS011;1680;48.106;11.708;2022-11-15T01:26:10;4.55;;;3.60;;
1831;SDS011;1680;48.106;11.708;2022-11-15T01:28:38;3.80;;;3.42;;
1831;SDS011;1680;48.106;11.708;2022-11-15T01:31:05;3.97;;;3.67;;
1831;SDS011;1680;48.106;11.708;2022-11-15T01:33:34;3.30;;;3.10;;
1831;SDS011;1680;48.106;11.708;2022-11-15T01:36:03;4.25;;;3.88;;
1831;SDS011;1680;48.106;11.708;2022-11-15T01:38:31;4.00;;;3.70;;
1831;SDS011;1680;48.106;11.708;2022-11-15T01:40:58;3.80;;;3.50;;
1831;SDS011;1680;48.106;11.708;2022-11-15T01:43:25;4.10;;;3.80;;
1831;SDS011;1680;48.106;11.708;2022-11-15T01:45:53;4.20;;;3.80;;
1831;SDS011;1680;48.106;11.708;2022-11-15T01:48:22;4.07;;;3.67;;
1831;SDS011;1680;48.106;11.708;2022-11-15T01:50:50;4.47;;;4.07;;
1831;SDS011;1680;48.106;11.708;2022-11-15T01:53:17;4.40;;;4.00;;
1831;SDS011;1680;48.106;11.708;2022-11-15T01:55:47;3.90;;;3.60;;
1831;SDS011;1680;48.106;11.708;2022-11-15T01:58:14;3.80;;;3.50;;
1831;SDS011;1680;48.106;11.708;2022-11-15T02:00:41;3.88;;;3.47;;
1831;SDS011;1680;48.106;11.708;2022-11-15T02:03:08;3.80;;;3.50;;
1831;SDS011;1680;48.106;11.708;2022-11-15T02:05:35;4.05;;;3.75;;
1831;SDS011;1680;48.106;11.708;2022-11-15T02:08:02;4.85;;;3.30;;
1831;SDS011;1680;48.106;11.708;2022-11-15T02:10:29;3.78;;;3.50;;
1831;SDS011;1680;48.106;11.708;2022-11-15T02:12:58;3.65;;;3.35;;
1831;SDS011;1680;48.106;11.708;2022-11-15T02:15:30;3.78;;;3.47;;
1831;SDS011;1680;48.106;11.708;2022-11-15T02:18:10;3.88;;;3.45;;
1831;SDS011;1680;48.106;11.708;2022-11-15T02:20:42;3.60;;;3.30;;
1831;SDS011;1680;48.106;11.708;2022-11-15T02:23:17;3.70;;;3.40;;
1831;SDS011;1680;48.106;11.708;2022-11-15T02:25:53;3.80;;;3.45;;
1831;SDS011;1680;48.106;11.708;2022-11-15T02:31:05;3.45;;;3.15;;
1831;SDS011;1680;48.106;11.708;2022-11-15T02:33:35;3.72;;;3.42;;
1831;SDS011;1680;48.106;11.708;2022-11-15T02:36:05;3.33;;;3.03;;
1831;SDS011;1680;48.106;11.708;2022-11-15T02:38:37;2.85;;;2.63;;
1831;SDS011;1680;48.106;11.708;2022-11-15T02:41:08;3.03;;;2.83;;
1831;SDS011;1680;48.106;11.708;2022-11-15T02:43:36;3.53;;;3.22;;
1831;SDS011;1680;48.106;11.708;2022-11-15T02:46:24;3.30;;;3.05;;
1831;SDS011;1680;48.106;11.708;2022-11-15T02:49:13;3.30;;;3.00;;
1831;SDS011;1680;48.106;11.708;2022-11-15T02:51:41;3.08;;;2.88;;
1831;SDS011;1680;48.106;11.708;2022-11-15T02:54:11;3.63;;;2.70;;
1831;SDS011;1680;48.106;11.708;2022-11-15T02:56:38;2.80;;;2.60;;
1831;SDS011;1680;48.106;11.708;2022-11-15T02:59:08;3.00;;;2.70;;
1831;SDS011;1680;48.106;11.708;2022-11-15T03:01:43;3.67;;;3.38;;
1831;SDS011;1680;48.106;11.708;2022-11-15T03:04:16;3.30;;;2.50;;
1831;SDS011;1680;48.106;11.708;2022-11-15T03:06:47;3.05;;;2.75;;
1831;SDS011;1680;48.106;11.708;2022-11-15T03:09:17;3.20;;;3.00;;
1831;SDS011;1680;48.106;11.708;2022-11-15T03:11:50;3.53;;;3.30;;
1831;SDS011;1680;48.106;11.708;2022-11-15T03:14:19;3.42;;;3.13;;
1831;SDS011;1680;48.106;11.708;2022-11-15T03:16:49;3.38;;;2.90;;
1831;SDS011;1680;48.106;11.708;2022-11-15T03:19:18;3.40;;;3.10;;
1831;SDS011;1680;48.106;11.708;2022-11-15T03:21:46;3.40;;;3.10;;
1831;SDS011;1680;48.106;11.708;2022-11-15T03:24:13;3.92;;;3.30;;
1831;SDS011;1680;48.106;11.708;2022-11-15T03:26:41;3.20;;;3.00;;
1831;SDS011;1680;48.106;11.708;2022-11-15T03:29:11;3.38;;;3.08;;
1831;SDS011;1680;48.106;11.708;2022-11-15T03:31:43;3.05;;;2.85;;
1831;SDS011;1680;48.106;11.708;2022-11-15T03:34:15;3.08;;;2.88;;
1831;SDS011;1680;48.106;11.708;2022-11-15T03:36:45;3.65;;;3.35;;
1831;SDS011;1680;48.106;11.708;2022-11-15T03:39:12;3.15;;;2.95;;
1831;SDS011;1680;48.106;11.708;2022-11-15T03:41:40;3.25;;;2.95;;
1831;SDS011;1680;48.106;11.708;2022-11-15T03:44:10;3.35;;;3.05;;
1831;SDS011;1680;48.106;11.708;2022-11-15T03:46:39;3.53;;;3.17;;
1831;SDS011;1680;48.106;11.708;2022-11-15T03:49:08;2.88;;;2.67;;
1831;SDS011;1680;48.106;11.708;2022-11-15T03:51:37;2.70;;;2.47;;
1831;SDS011;1680;48.106;11.708;2022-11-15T03:54:03;4.00;;;2.85;;
1831;SDS011;1680;48.106;11.708;2022-11-15T03:56:30;2.70;;;2.45;;
1831;SDS011;1680;48.106;11.708;2022-11-15T03:58:57;3.08;;;2.85;;
1831;SDS011;1680;48.106;11.708;2022-11-15T04:01:24;2.88;;;2.67;;
1831;SDS011;1680;48.106;11.708;2022-11-15T04:03:50;2.65;;;2.47;;
1831;SDS011;1680;48.106;11.708;2022-11-15T04:06:17;2.45;;;2.30;;
1831;SDS011;1680;48.106;11.708;2022-11-15T04:08:44;3.13;;;2.92;;
1831;SDS011;1680;48.106;11.708;2022-11-15T04:11:11;3.17;;;2.88;;
1831;SDS011;1680;48.106;11.708;2022-11-15T04:13:37;2.78;;;2.58;;
1831;SDS011;1680;48.106;11.708;2022-11-15T04:16:04;3.20;;;2.90;;
1831;SDS011;1680;48.106;11.708;2022-11-15T04:18:31;3.05;;;2.80;;
1831;SDS011;1680;48.106;11.708;2022-11-15T04:20:57;3.00;;;2.80;;
1831;SDS011;1680;48.106;11.708;2022-11-15T04:23:41;3.00;;;2.80;;
1831;SDS011;1680;48.106;11.708;2022-11-15T04:26:26;3.00;;;2.80;;
1831;SDS011;1680;48.106;11.708;2022-11-15T04:28:53;2.72;;;2.53;;
1831;SDS011;1680;48.106;11.708;2022-11-15T04:31:37;2.80;;;2.60;;
1831;SDS011;1680;48.106;11.708;2022-11-15T04:34:03;3.10;;;2.90;;
1831;SDS011;1680;48.106;11.708;2022-11-15T04:36:30;2.95;;;2.70;;
1831;SDS011;1680;48.106;11.708;2022-11-15T04:39:14;2.58;;;2.38;;
1831;SDS011;1680;48.106;11.708;2022-11-15T04:41:42;2.80;;;2.45;;
1831;SDS011;1680;48.106;11.708;2022-11-15T04:44:09;2.70;;;2.50;;
1831;SDS011;1680;48.106;11.708;2022-11-15T04:46:35;2.75;;;2.55;;
1831;SDS011;1680;48.106;11.708;2022-11-15T04:49:02;2.30;;;2.20;;
1831;SDS011;1680;48.106;11.708;2022-11-15T04:51:29;2.65;;;2.45;;
1831;SDS011;1680;48.106;11.708;2022-11-15T04:53:55;2.40;;;2.30;;
1831;SDS011;1680;48.106;11.708;2022-11-15T04:56:21;2.25;;;2.15;;
1831;SDS011;1680;48.106;11.708;2022-11-15T04:58:49;2.60;;;2.40;;
1831;SDS011;1680;48.106;11.708;2022-11-15T05:01:16;2.95;;;2.65;;
1831;SDS011;1680;48.106;11.708;2022-11-15T05:03:43;2.65;;;2.45;;
1831;SDS011;1680;48.106;11.708;2022-11-15T05:06:27;2.78;;;2.10;;
1831;SDS011;1680;48.106;11.708;2022-11-15T05:08:54;2.60;;;2.33;;
1831;SDS011;1680;48.106;11.708;2022-11-15T05:11:20;2.50;;;2.30;;
1831;SDS011;1680;48.106;11.708;2022-11-15T05:13:47;2.63;;;2.42;;
1831;SDS011;1680;48.106;11.708;2022-11-15T05:16:15;2.30;;;2.20;;
1831;SDS011;1680;48.106;11.708;2022-11-15T05:18:42;3.65;;;3.03;;
1831;SDS011;1680;48.106;11.708;2022-11-15T05:21:09;2.80;;;2.60;;
1831;SDS011;1680;48.106;11.708;2022-11-15T05:23:36;2.47;;;2.28;;
1831;SDS011;1680;48.106;11.708;2022-11-15T05:26:03;2.70;;;2.40;;
1831;SDS011;1680;48.106;11.708;2022-11-15T05:28:29;2.13;;;2.03;;
1831;SDS011;1680;48.106;11.708;2022-11-15T05:31:00;3.08;;;2.88;;
1831;SDS011;1680;48.106;11.708;2022-11-15T05:33:28;2.72;;;2.53;;
1831;SDS011;1680;48.106;11.708;2022-11-15T05:35:56;3.05;;;2.70;;
1831;SDS011;1680;48.106;11.708;2022-11-15T05:38:25;3.50;;;3.20;;
1831;SDS011;1680;48.106;11.708;2022-11-15T05:40:51;4.13;;;3.75;;
1831;SDS011;1680;48.106;11.708;2022-11-15T05:43:18;4.07;;;3.70;;
1831;SDS011;1680;48.106;11.708;2022-11-15T05:45:45;3.58;;;3.28;;
1831;SDS011;1680;48.106;11.708;2022-11-15T05:48:11;3.60;;;3.30;;
1831;SDS011;1680;48.106;11.708;2022-11-15T05:50:40;4.03;;;3.72;;
1831;SDS011;1680;48.106;11.708;2022-11-15T05:53:09;3.90;;;3.60;;
1831;SDS011;1680;48.106;11.708;2022-11-15T05:55:36;4.00;;;3.70;;
1831;SDS011;1680;48.106;11.708;2022-11-15T05:58:03;3.25;;;3.05;;
1831;SDS011;1680;48.106;11.708;2022-11-15T06:00:30;3.47;;;3.17;;
1831;SDS011;1680;48.106;11.708;2022-11-15T06:02:56;3.75;;;3.10;;
1831;SDS011;1680;48.106;11.708;2022-11-15T06:05:23;4.32;;;3.85;;
1831;SDS011;1680;48.106;11.708;2022-11-15T06:07:51;3.70;;;3.40;;
1831;SDS011;1680;48.106;11.708;2022-11-15T06:10:18;3.53;;;3.22;;
1831;SDS011;1680;48.106;11.708;2022-11-15T06:12:44;3.55;;;3.25;;
1831;SDS011;1680;48.106;11.708;2022-11-15T06:15:11;4.00;;;3.70;;
1831;SDS011;1680;48.106;11.708;2022-11-15T06:17:37;3.50;;;3.20;;
1831;SDS011;1680;48.106;11.708;2022-11-15T06:20:05;3.90;;;3.60;;
1831;SDS011;1680;48.106;11.708;2022-11-15T06:22:31;4.63;;;3.70;;
1831;SDS011;1680;48.106;11.708;2022-11-15T06:24:59;4.10;;;3.80;;
1831;SDS011;1680;48.106;11.708;2022-11-15T06:27:26;4.03;;;3.72;;
1831;SDS011;1680;48.106;11.708;2022-11-15T06:29:52;3.65;;;3.35;;
1831;SDS011;1680;48.106;11.708;2022-11-15T06:32:19;4.28;;;3.88;;
1831;SDS011;1680;48.106;11.708;2022-11-15T06:34:45;5.30;;;4.35;;
1831;SDS011;1680;48.106;11.708;2022-11-15T06:37:12;5.05;;;4.10;;
1831;SDS011;1680;48.106;11.708;2022-11-15T06:39:39;4.47;;;4.07;;
1831;SDS011;1680;48.106;11.708;2022-11-15T06:42:07;5.00;;;4.00;;
1831;SDS011;1680;48.106;11.708;2022-11-15T06:44:34;4.57;;;4.18;;
1831;SDS011;1680;48.106;11.708;2022-11-15T06:47:00;5.75;;;4.40;;
1831;SDS011;1680;48.106;11.708;2022-11-15T06:49:27;5.07;;;4.57;;
1831;SDS011;1680;48.106;11.708;2022-11-15T06:51:53;6.07;;;5.28;;
1831;SDS011;1680;48.106;11.708;2022-11-15T06:54:20;5.50;;;5.05;;
1831;SDS011;1680;48.106;11.708;2022-11-15T06:56:47;5.70;;;5.25;;
1831;SDS011;1680;48.106;11.708;2022-11-15T06:59:15;6.00;;;5.50;;
1831;SDS011;1680;48.106;11.708;2022-11-15T07:01:41;6.00;;;5.60;;
1831;SDS011;1680;48.106;11.708;2022-11-15T07:04:08;5.95;;;5.55;;
1831;SDS011;1680;48.106;11.708;2022-11-15T07:06:34;6.30;;;5.80;;
1831;SDS011;1680;48.106;11.708;2022-11-15T07:09:01;7.05;;;6.35;;
1831;SDS011;1680;48.106;11.708;2022-11-15T07:11:28;6.07;;;5.55;;
1831;SDS011;1680;48.106;11.708;2022-11-15T07:13:54;6.90;;;5.88;;
1831;SDS011;1680;48.106;11.708;2022-11-15T07:16:22;5.95;;;5.40;;
1831;SDS011;1680;48.106;11.708;2022-11-15T07:18:49;5.72;;;5.10;;
1831;SDS011;1680;48.106;11.708;2022-11-15T07:21:15;5.47;;;5.07;;
1831;SDS011;1680;48.106;11.708;2022-11-15T07:23:42;5.15;;;4.72;;
1831;SDS011;1680;48.106;11.708;2022-11-15T07:26:09;4.97;;;4.50;;
1831;SDS011;1680;48.106;11.708;2022-11-15T07:28:35;4.32;;;4.03;;
1831;SDS011;1680;48.106;11.708;2022-11-15T07:31:02;4.88;;;4.40;;
1831;SDS011;1680;48.106;11.708;2022-11-15T07:33:31;4.30;;;4.00;;
1831;SDS011;1680;48.106;11.708;2022-11-15T07:35:58;4.32;;;3.92;;
1831;SDS011;1680;48.106;11.708;2022-11-15T07:38:26;4.93;;;4.35;;
1831;SDS011;1680;48.106;11.708;2022-11-15T07:40:55;4.78;;;4.20;;
1831;SDS011;1680;48.106;11.708;2022-11-15T07:43:22;5.15;;;4.30;;
1831;SDS011;1680;48.106;11.708;2022-11-15T07:45:48;5.13;;;4.70;;
1831;SDS011;1680;48.106;11.708;2022-11-15T07:48:15;5.07;;;4.57;;
1831;SDS011;1680;48.106;11.708;2022-11-15T07:50:43;4.97;;;4.55;;
1831;SDS011;1680;48.106;11.708;2022-11-15T07:53:10;4.85;;;4.45;;
1831;SDS011;1680;48.106;11.708;2022-11-15T07:55:37;4.07;;;3.78;;
1831;SDS011;1680;48.106;11.708;2022-11-15T07:58:07;4.30;;;3.90;;
1831;SDS011;1680;48.106;11.708;2022-11-15T08:00:34;5.40;;;4.10;;
1831;SDS011;1680;48.106;11.708;2022-11-15T08:03:02;4.33;;;3.93;;
1831;SDS011;1680;48.106;11.708;2022-11-15T08:05:28;5.00;;;4.50;;
1831;SDS011;1680;48.106;11.708;2022-11-15T08:07:56;6.47;;;5.40;;
1831;SDS011;1680;48.106;11.708;2022-11-15T08:10:23;5.88;;;5.25;;
1831;SDS011;1680;48.106;11.708;2022-11-15T08:12:56;20.50;;;18.80;;
1831;SDS011;1680;48.106;11.708;2022-11-15T08:15:23;17.47;;;15.90;;
1831;SDS011;1680;48.106;11.708;2022-11-15T08:17:52;11.63;;;10.53;;
1831;SDS011;1680;48.106;11.708;2022-11-15T08:20:19;6.20;;;5.70;;
1831;SDS011;1680;48.106;11.708;2022-11-15T08:22:46;5.30;;;4.80;;
1831;SDS011;1680;48.106;11.708;2022-11-15T08:25:14;3.87;;;3.57;;
1831;SDS011;1680;48.106;11.708;2022-11-15T08:27:41;4.23;;;3.43;;
1831;SDS011;1680;48.106;11.708;2022-11-15T08:30:08;4.13;;;3.53;;
1831;SDS011;1680;48.106;11.708;2022-11-15T08:32:36;3.63;;;3.30;;
1831;SDS011;1680;48.106;11.708;2022-11-15T08:35:04;3.67;;;3.37;;
1831;SDS011;1680;48.106;11.708;2022-11-15T08:37:31;4.10;;;2.60;;
1831;SDS011;1680;48.106;11.708;2022-11-15T08:39:57;3.37;;;3.07;;
1831;SDS011;1680;48.106;11.708;2022-11-15T08:42:26;3.30;;;3.00;;
1831;SDS011;1680;48.106;11.708;2022-11-15T08:44:52;3.77;;;3.47;;
1831;SDS011;1680;48.106;11.708;2022-11-15T08:47:19;3.57;;;3.23;;
1831;SDS011;1680;48.106;11.708;2022-11-15T08:49:46;3.53;;;3.23;;
1831;SDS011;1680;48.106;11.708;2022-11-15T08:52:13;3.30;;;3.00;;
1831;SDS011;1680;48.106;11.708;2022-11-15T08:54:40;3.33;;;3.03;;
1831;SDS011;1680;48.106;11.708;2022-11-15T08:57:06;5.00;;;3.70;;
1831;SDS011;1680;48.106;11.708;2022-11-15T08:59:36;5.00;;;3.07;;
1831;SDS011;1680;48.106;11.708;2022-11-15T09:02:02;3.03;;;2.73;;
1831;SDS011;1680;48.106;11.708;2022-11-15T09:04:29;3.00;;;2.80;;
1831;SDS011;1680;48.106;11.708;2022-11-15T09:06:56;3.07;;;2.77;;
1831;SDS011;1680;48.106;11.708;2022-11-15T09:09:23;3.57;;;3.10;;
1831;SDS011;1680;48.106;11.708;2022-11-15T09:11:50;3.10;;;2.90;;
1831;SDS011;1680;48.106;11.708;2022-11-15T09:14:16;3.13;;;2.93;;
1831;SDS011;1680;48.106;11.708;2022-11-15T09:16:45;3.07;;;2.80;;
1831;SDS011;1680;48.106;11.708;2022-11-15T09:19:11;3.30;;;3.10;;
1831;SDS011;1680;48.106;11.708;2022-11-15T09:21:40;3.43;;;3.13;;
1831;SDS011;1680;48.106;11.708;2022-11-15T09:24:07;3.33;;;3.03;;
1831;SDS011;1680;48.106;11.708;2022-11-15T09:26:34;2.87;;;2.67;;
1831;SDS011;1680;48.106;11.708;2022-11-15T09:29:00;3.03;;;2.83;;
1831;SDS011;1680;48.106;11.708;2022-11-15T09:31:27;3.73;;;3.20;;
1831;SDS011;1680;48.106;11.708;2022-11-15T09:33:56;2.83;;;2.63;;
1831;SDS011;1680;48.106;11.708;2022-11-15T09:36:22;2.87;;;2.67;;
1831;SDS011;1680;48.106;11.708;2022-11-15T09:38:49;3.17;;;2.77;;
1831;SDS011;1680;48.106;11.708;2022-11-15T09:41:23;3.20;;;2.70;;
1831;SDS011;1680;48.106;11.708;2022-11-15T09:43:54;2.83;;;2.63;;
1831;SDS011;1680;48.106;11.708;2022-11-15T09:46:30;2.93;;;2.73;;
1831;SDS011;1680;48.106;11.708;2022-11-15T09:48:59;3.00;;;2.80;;
1831;SDS011;1680;48.106;11.708;2022-11-15T09:51:28;2.90;;;2.60;;
1831;SDS011;1680;48.106;11.708;2022-11-15T09:53:57;3.10;;;2.57;;
1831;SDS011;1680;48.106;11.708;2022-11-15T09:56:26;2.80;;;2.60;;
1831;SDS011;1680;48.106;11.708;2022-11-15T09:58:54;2.60;;;2.40;;
1831;SDS011;1680;48.106;11.708;2022-11-15T10:01:25;2.97;;;2.73;;
1831;SDS011;1680;48.106;11.708;2022-11-15T10:03:59;2.40;;;2.20;;
1831;SDS011;1680;48.106;11.708;2022-11-15T10:06:26;3.00;;;2.70;;
1831;SDS011;1680;48.106;11.708;2022-11-15T10:08:55;2.50;;;2.30;;
1831;SDS011;1680;48.106;11.708;2022-11-15T10:11:23;3.80;;;2.60;;
1831;SDS011;1680;48.106;11.708;2022-11-15T10:13:52;3.27;;;2.80;;
1831;SDS011;1680;48.106;11.708;2022-11-15T10:16:33;2.60;;;2.40;;
1831;SDS011;1680;48.106;11.708;2022-11-15T10:19:07;2.80;;;2.50;;
1831;SDS011;1680;48.106;11.708;2022-11-15T10:21:39;2.40;;;2.20;;
1831;SDS011;1680;48.106;11.708;2022-11-15T10:24:10;4.53;;;2.80;;
1831;SDS011;1680;48.106;11.708;2022-11-15T10:26:37;2.70;;;2.50;;
1831;SDS011;1680;48.106;11.708;2022-11-15T10:29:04;3.10;;;2.80;;
1831;SDS011;1680;48.106;11.708;2022-11-15T10:31:30;3.17;;;2.87;;
1831;SDS011;1680;48.106;11.708;2022-11-15T10:33:59;3.30;;;2.50;;
1831;SDS011;1680;48.106;11.708;2022-11-15T10:36:36;3.23;;;2.70;;
1831;SDS011;1680;48.106;11.708;2022-11-15T10:39:03;2.83;;;2.40;;
1831;SDS011;1680;48.106;11.708;2022-11-15T10:41:31;3.17;;;2.87;;
1831;SDS011;1680;48.106;11.708;2022-11-15T10:44:08;3.57;;;2.50;;
1831;SDS011;1680;48.106;11.708;2022-11-15T10:46:37;3.20;;;2.70;;
1831;SDS011;1680;48.106;11.708;2022-11-15T10:49:11;3.00;;;2.70;;
1831;SDS011;1680;48.106;11.708;2022-11-15T10:51:41;2.90;;;2.70;;
1831;SDS011;1680;48.106;11.708;2022-11-15T10:54:10;2.53;;;2.33;;
1831;SDS011;1680;48.106;11.708;2022-11-15T10:56:38;2.90;;;2.70;;
1831;SDS011;1680;48.106;11.708;2022-11-15T10:59:12;2.27;;;2.07;;
1831;SDS011;1680;48.106;11.708;2022-11-15T11:01:45;2.37;;;2.17;;
1831;SDS011;1680;48.106;11.708;2022-11-15T11:04:12;2.63;;;2.27;;
1831;SDS011;1680;48.106;11.708;2022-11-15T11:06:47;2.47;;;2.27;;
1831;SDS011;1680;48.106;11.708;2022-11-15T11:09:21;2.33;;;2.13;;
1831;SDS011;1680;48.106;11.708;2022-11-15T11:11:48;2.50;;;2.30;;
1831;SDS011;1680;48.106;11.708;2022-11-15T11:14:17;2.43;;;2.23;;
1831;SDS011;1680;48.106;11.708;2022-11-15T11:16:47;3.40;;;2.60;;
1831;SDS011;1680;48.106;11.708;2022-11-15T11:19:25;4.20;;;2.50;;
1831;SDS011;1680;48.106;11.708;2022-11-15T11:21:57;3.90;;;2.77;;
1831;SDS011;1680;48.106;11.708;2022-11-15T11:24:29;2.63;;;2.40;;
1831;SDS011;1680;48.106;11.708;2022-11-15T11:27:02;3.13;;;2.83;;
1831;SDS011;1680;48.106;11.708;2022-11-15T11:29:35;2.37;;;2.17;;
1831;SDS011;1680;48.106;11.708;2022-11-15T11:32:08;2.87;;;2.60;;
1831;SDS011;1680;48.106;11.708;2022-11-15T11:34:45;3.13;;;2.23;;
1831;SDS011;1680;48.106;11.708;2022-11-15T11:37:20;2.00;;;1.90;;
1831;SDS011;1680;48.106;11.708;2022-11-15T11:39:53;2.73;;;2.50;;
1831;SDS011;1680;48.106;11.708;2022-11-15T11:42:26;3.13;;;2.83;;
1831;SDS011;1680;48.106;11.708;2022-11-15T11:44:58;2.40;;;2.20;;
1831;SDS011;1680;48.106;11.708;2022-11-15T11:47:30;2.20;;;2.00;;
1831;SDS011;1680;48.106;11.708;2022-11-15T11:49:59;2.40;;;2.20;;
1831;SDS011;1680;48.106;11.708;2022-11-15T11:52:29;2.53;;;2.33;;
1831;SDS011;1680;48.106;11.708;2022-11-15T11:54:59;2.40;;;2.20;;
1831;SDS011;1680;48.106;11.708;2022-11-15T11:57:29;2.67;;;2.40;;
1831;SDS011;1680;48.106;11.708;2022-11-15T12:00:00;4.37;;;2.90;;
1831;SDS011;1680;48.106;11.708;2022-11-15T12:02:28;2.80;;;2.60;;
1831;SDS011;1680;48.106;11.708;2022-11-15T12:04:57;4.37;;;2.50;;
1831;SDS011;1680;48.106;11.708;2022-11-15T12:07:29;3.13;;;2.83;;
1831;SDS011;1680;48.106;11.708;2022-11-15T12:09:58;2.80;;;2.60;;
1831;SDS011;1680;48.106;11.708;2022-11-15T12:12:27;2.97;;;2.77;;
1831;SDS011;1680;48.106;11.708;2022-11-15T12:14:56;2.63;;;2.43;;
1831;SDS011;1680;48.106;11.708;2022-11-15T12:17:25;3.00;;;2.70;;
1831;SDS011;1680;48.106;11.708;2022-11-15T12:19:55;2.83;;;2.63;;
1831;SDS011;1680;48.106;11.708;2022-11-15T12:22:23;3.47;;;2.80;;
1831;SDS011;1680;48.106;11.708;2022-11-15T12:24:59;2.90;;;2.70;;
1831;SDS011;1680;48.106;11.708;2022-11-15T12:27:32;2.87;;;2.67;;
1831;SDS011;1680;48.106;11.708;2022-11-15T12:30:02;3.47;;;3.17;;
1831;SDS011;1680;48.106;11.708;2022-11-15T12:32:31;2.90;;;2.70;;
1831;SDS011;1680;48.106;11.708;2022-11-15T12:34:58;3.00;;;2.80;;
1831;SDS011;1680;48.106;11.708;2022-11-15T12:37:32;2.97;;;2.77;;
1831;SDS011;1680;48.106;11.708;2022-11-15T12:40:18;2.80;;;2.60;;
1831;SDS011;1680;48.106;11.708;2022-11-15T12:42:57;3.63;;;2.80;;
1831;SDS011;1680;48.106;11.708;2022-11-15T12:45:25;4.00;;;2.73;;
1831;SDS011;1680;48.106;11.708;2022-11-15T12:47:52;3.30;;;2.70;;
1831;SDS011;1680;48.106;11.708;2022-11-15T12:56:19;2.80;;;2.60;;
1831;SDS011;1680;48.106;11.708;2022-11-15T12:58:46;2.83;;;2.63;;
1831;SDS011;1680;48.106;11.708;2022-11-15T13:04:08;3.27;;;2.97;;
1831;SDS011;1680;48.106;11.708;2022-11-15T13:06:39;2.93;;;2.63;;
1831;SDS011;1680;48.106;11.708;2022-11-15T13:11:49;2.73;;;2.53;;
1831;SDS011;1680;48.106;11.708;2022-11-15T13:14:38;3.20;;;2.80;;
1831;SDS011;1680;48.106;11.708;2022-11-15T13:17:12;2.63;;;2.43;;
1831;SDS011;1680;48.106;11.708;2022-11-15T13:19:39;2.77;;;2.57;;
1831;SDS011;1680;48.106;11.708;2022-11-15T13:22:08;3.30;;;3.00;;
1831;SDS011;1680;48.106;11.708;2022-11-15T13:24:52;3.10;;;2.90;;
1831;SDS011;1680;48.106;11.708;2022-11-15T13:27:20;3.30;;;2.93;;
1831;SDS011;1680;48.106;11.708;2022-11-15T13:29:47;2.50;;;2.30;;
1831;SDS011;1680;48.106;11.708;2022-11-15T13:32:14;2.87;;;2.50;;
1831;SDS011;1680;48.106;11.708;2022-11-15T13:34:42;2.87;;;2.67;;
1831;SDS011;1680;48.106;11.708;2022-11-15T13:37:12;3.30;;;3.10;;
1831;SDS011;1680;48.106;11.708;2022-11-15T13:39:39;2.97;;;2.67;;
1831;SDS011;1680;48.106;11.708;2022-11-15T13:42:10;3.30;;;2.97;;
1831;SDS011;1680;48.106;11.708;2022-11-15T13:44:54;4.00;;;3.60;;
1831;SDS011;1680;48.106;11.708;2022-11-15T13:47:21;3.43;;;3.10;;
1831;SDS011;1680;48.106;11.708;2022-11-15T13:49:47;3.07;;;2.87;;
1831;SDS011;1680;48.106;11.708;2022-11-15T13:52:14;3.23;;;3.03;;
1831;SDS011;1680;48.106;11.708;2022-11-15T13:54:42;5.23;;;4.73;;
1831;SDS011;1680;48.106;11.708;2022-11-15T13:57:11;7.13;;;6.43;;
1831;SDS011;1680;48.106;11.708;2022-11-15T13:59:45;8.43;;;7.40;;
1831;SDS011;1680;48.106;11.708;2022-11-15T14:02:13;4.67;;;4.27;;
1831;SDS011;1680;48.106;11.708;2022-11-15T14:04:44;4.13;;;3.70;;
1831;SDS011;1680;48.106;11.708;2022-11-15T14:07:15;3.43;;;3.13;;
1831;SDS011;1680;48.106;11.708;2022-11-15T14:09:42;3.33;;;3.03;;
1831;SDS011;1680;48.106;11.708;2022-11-15T14:17:46;3.27;;;3.00;;
1831;SDS011;1680;48.106;11.708;2022-11-15T14:20:20;3.07;;;2.87;;
1831;SDS011;1680;48.106;11.708;2022-11-15T14:22:53;3.20;;;3.00;;
1831;SDS011;1680;48.106;11.708;2022-11-15T14:25:20;3.23;;;3.00;;
1831;SDS011;1680;48.106;11.708;2022-11-15T14:30:28;3.10;;;2.90;;
1831;SDS011;1680;48.106;11.708;2022-11-15T14:32:58;3.30;;;3.00;;
1831;SDS011;1680;48.106;11.708;2022-11-15T14:35:26;3.87;;;3.57;;
1831;SDS011;1680;48.106;11.708;2022-11-15T14:37:52;3.87;;;3.47;;
1831;SDS011;1680;48.106;11.708;2022-11-15T14:40:19;3.50;;;3.20;;
1831;SDS011;1680;48.106;11.708;2022-11-15T14:42:47;3.10;;;2.57;;
1831;SDS011;1680;48.106;11.708;2022-11-15T14:45:14;3.20;;;2.90;;
1831;SDS011;1680;48.106;11.708;2022-11-15T14:47:42;4.00;;;3.57;;
1831;SDS011;1680;48.106;11.708;2022-11-15T14:50:13;3.07;;;2.80;;
1831;SDS011;1680;48.106;11.708;2022-11-15T14:52:39;4.17;;;2.90;;
1831;SDS011;1680;48.106;11.708;2022-11-15T14:55:11;3.80;;;3.17;;
1831;SDS011;1680;48.106;11.708;2022-11-15T14:57:39;4.23;;;3.13;;
1831;SDS011;1680;48.106;11.708;2022-11-15T15:00:07;3.80;;;2.50;;
1831;SDS011;1680;48.106;11.708;2022-11-15T15:02:35;3.37;;;3.07;;
1831;SDS011;1680;48.106;11.708;2022-11-15T15:05:08;3.87;;;3.17;;
1831;SDS011;1680;48.106;11.708;2022-11-15T15:07:39;3.10;;;2.73;;
1831;SDS011;1680;48.106;11.708;2022-11-15T15:10:05;2.67;;;2.47;;
1831;SDS011;1680;48.106;11.708;2022-11-15T15:12:32;2.57;;;2.37;;
1831;SDS011;1680;48.106;11.708;2022-11-15T15:14:59;2.70;;;2.50;;
1831;SDS011;1680;48.106;11.708;2022-11-15T15:17:26;3.00;;;2.80;;
1831;SDS011;1680;48.106;11.708;2022-11-15T15:19:53;3.67;;;2.53;;
1831;SDS011;1680;48.106;11.708;2022-11-15T15:22:20;3.40;;;2.87;;
1831;SDS011;1680;48.106;11.708;2022-11-15T15:24:51;4.63;;;4.17;;
1831;SDS011;1680;48.106;11.708;2022-11-15T15:27:18;3.83;;;3.37;;
1831;SDS011;1680;48.106;11.708;2022-11-15T15:29:45;3.63;;;3.40;;
1831;SDS011;1680;48.106;11.708;2022-11-15T15:32:11;4.57;;;4.17;;